Terminal Aerodrome Forecast
Issued by NWS

Home | Current Version | Previous Version | Text Only | Print | Product List | Glossary On
Versions: 1 2 3 4 5 6 7 8 9 10 11 12 13 14 15 16 17 18
000
FTUS43 KEAX 151100
TAFSTJ
TAF
KSTJ 151120Z 1512/1612 13012KT P6SM BKN015
     FM151600 21012KT P6SM -SHRA BKN015
     FM151800 28015G25KT P6SM -SHRA BKN025
     FM152100 30015G25KT P6SM BKN050
     FM160600 32015G25KT P6SM BKN050=

USA.gov is the U.S. government's official web portal to all federal, state and local government web resources and services.